Terminal Aerodrome Forecast
Issued by NWS Memphis, TN

Home | Current Version | Previous Version | Text Only | Print | Product List | Glossary On
Versions: 1 2 3 4 5 6 7 8 9 10 11 12 13 14 15 16 17
000
FTUS44 KMEG 290524
TAFJBR
TAF
KJBR 290524Z 2906/3006 VRB03KT P6SM SKC
     FM291200 13008KT P6SM OVC035
     FM291500 16012G20KT P6SM OVC025
     FM292000 18015G25KT P6SM SCT035 SCT150
     FM300100 25007KT P6SM SHRA OVC040
     FM300400 32007KT P6SM SKC=

USA.gov is the U.S. government's official web portal to all federal, state and local government web resources and services.